CST,Max TemperatureF,Mean TemperatureF,Min TemperatureF,Max Dew PointF,MeanDew PointF,Min DewpointF,Max Humidity, Mean Humidity, Min Humidity, Max Sea Level PressureIn, Mean Sea Level PressureIn, Min Sea Level PressureIn, Max VisibilityMiles, Mean VisibilityMiles, Min VisibilityMiles, Max Wind SpeedMPH, Mean Wind SpeedMPH, Max Gust SpeedMPH,PrecipitationIn, CloudCover, Events, WindDirDegrees
2012-11-1,73,53,34,42,37,29,85,60,33,30.04,29.97,29.88,,,,7,2,,0.00,,,358
2012-11-2,55,46,37,35,32,30,79,59,38,30.07,30.02,29.96,,,,12,5,17,0.00,,,66
2012-11-3,57,46,33,34,32,29,89,61,42,30.25,30.14,30.01,,,,9,6,,0.00,,,5
2012-11-4,57,44,30,40,35,28,89,72,49,30.28,30.20,30.10,,,,10,3,,0.01,,,142
2012-11-5,44,42,41,40,39,38,93,88,82,30.17,30.09,30.02,,,,9,7,16,0.22,,,73
2012-11-6,57,50,42,41,37,32,92,69,39,30.12,30.03,29.94,,,,17,5,26,0.01,,,283
2012-11-7,51,43,35,34,33,31,86,68,50,30.20,30.14,30.04,,,,8,4,,0.00,,,308
2012-11-8,63,50,36,39,35,30,82,62,38,30.18,30.06,29.96,,,,13,6,18,0.00,,,144
2012-11-9,73,60,48,57,49,38,75,65,55,29.95,29.87,29.78,,,,13,7,21,0.00,,,164
2012-11-10,75,69,63,56,53,47,73,58,42,29.81,29.75,29.70,,,,22,13,33,0.00,,,182
2012-11-11,66,47,28,58,37,19,93,78,61,30.24,29.91,29.63,,,,16,11,26,1.40,,,282
2012-11-12,43,34,24,24,20,18,88,65,38,30.48,30.38,30.26,,,,15,5,26,0.00,,,256
2012-11-13,54,38,21,33,27,18,89,66,37,30.52,30.46,30.39,,,,9,2,,0.00,,,151
2012-11-14,55,44,34,35,30,26,89,59,32,30.45,30.38,30.32,,,,10,2,,0.00,,,178
2012-11-15,57,46,35,38,31,25,89,61,40,30.42,30.35,30.30,,,,9,4,,0.00,,,169
2012-11-16,59,46,33,38,33,29,89,71,41,30.50,30.45,30.42,,,,6,2,,0.00,,,353
2012-11-17,59,46,34,34,32,29,86,59,36,30.46,30.39,30.32,,,,13,4,22,0.00,,,148
2012-11-18,62,50,37,34,31,28,68,46,34,30.33,30.26,30.19,,,,13,7,22,0.00,,,152
2012-11-19,63,54,44,47,42,33,89,66,45,30.18,30.12,30.06,,,,15,8,17,0.00,,,181
2012-11-20,64,50,35,44,39,33,92,73,46,30.24,30.18,30.10,,,,8,2,,0.00,,,317
2012-11-21,69,50,32,44,37,30,96,65,33,30.25,30.15,30.00,,,,14,5,23,0.00,,,174
2012-11-22,68,56,42,50,41,34,73,55,46,30.22,29.96,29.82,,,,13,9,25,0.00,,,223
2012-11-23,42,34,24,33,19,13,73,54,39,30.49,30.40,30.22,,,,16,9,29,0.00,,,311
2012-11-24,39,29,19,24,17,13,78,60,43,30.45,30.23,29.94,,,,12,4,18,0.00,,,170
2012-11-25,51,40,30,30,27,24,82,61,44,30.13,30.00,29.91,,,,8,5,,0.00,,,13
2012-11-26,37,29,18,25,20,11,82,66,54,30.53,30.35,30.14,,,,13,7,21,0.00,,,8
2012-11-27,37,24,10,18,13,6,88,65,39,30.54,30.44,30.34,,,,12,3,,0.00,,,193
2012-11-28,50,34,19,28,23,15,85,66,41,30.48,30.37,30.24,,,,8,2,,0.00,,,158
2012-11-29,57,44,30,38,32,26,89,70,47,30.22,30.10,30.01,,,,13,3,21,0.00,,,183
2012-11-30,61,48,34,37,34,30,86,68,39,30.11,30.07,30.02,,,,7,4,,0.00,,,205